createdAt,value
2018-11-01T00:00:53.711Z,61.29
2018-11-01T00:01:53.294Z,61.48
2018-11-01T00:02:53.302Z,61.19
2018-11-01T00:03:53.305Z,61.38
2018-11-01T00:04:53.333Z,60.91
2018-11-01T00:05:53.367Z,61.38
2018-11-01T00:06:53.330Z,60.72
2018-11-01T00:07:53.329Z,60.72
2018-11-01T00:08:53.340Z,60.72
2018-11-01T00:09:53.359Z,60.81
2018-11-01T00:10:53.347Z,60.33
2018-11-01T00:11:53.355Z,60.52
2018-11-01T00:12:53.391Z,60.72
2018-11-01T00:13:53.368Z,61.07
2018-11-01T00:14:53.394Z,61.10
2018-11-01T00:15:53.377Z,61.10
2018-11-01T00:16:53.380Z,61.64
2018-11-01T00:17:53.413Z,62.12
2018-11-01T00:18:53.385Z,61.93
2018-11-01T00:19:53.401Z,61.73
2018-11-01T00:20:54.145Z,62.02
2018-11-01T00:21:53.419Z,62.75
2018-11-01T00:22:54.040Z,63.04
2018-11-01T00:23:53.438Z,62.85
2018-11-01T00:24:53.543Z,62.37
2018-11-01T00:25:53.425Z,62.94
2018-11-01T00:26:53.438Z,63.04
2018-11-01T00:27:53.472Z,62.94
2018-11-01T00:28:53.442Z,62.94
2018-11-01T00:29:53.447Z,63.13
2018-11-01T00:30:53.478Z,63.80
2018-11-01T00:31:53.498Z,63.70
2018-11-01T00:32:53.464Z,64.75
2018-11-01T00:33:53.471Z,64.18
2018-11-01T00:34:53.492Z,64.56
2018-11-01T00:35:53.479Z,63.99
2018-11-01T00:36:53.503Z,63.80
2018-11-01T00:37:53.497Z,63.89
2018-11-01T00:38:53.501Z,63.80
2018-11-01T00:39:53.525Z,63.80
2018-11-01T00:40:53.512Z,63.60
2018-11-01T00:41:53.506Z,64.08
2018-11-01T00:42:53.538Z,64.28
2018-11-01T00:43:53.553Z,64.65
2018-11-01T00:44:53.542Z,64.56
2018-11-01T00:45:53.561Z,64.47
2018-11-01T00:46:53.539Z,64.65
2018-11-01T00:47:53.544Z,64.65
2018-11-01T00:48:53.542Z,64.65
2018-11-01T00:49:53.546Z,64.18
2018-11-01T00:50:53.549Z,63.99
2018-11-01T00:51:53.606Z,64.37
2018-11-01T00:52:53.595Z,64.75
2018-11-01T00:53:53.574Z,64.56
2018-11-01T00:54:53.661Z,64.75
2018-11-01T00:55:53.586Z,64.37
2018-11-01T00:56:53.580Z,64.37
2018-11-01T00:57:53.592Z,64.56
2018-11-01T00:58:53.649Z,64.75
2018-11-01T00:59:53.632Z,64.28
2018-11-01T01:00:53.620Z,63.89
2018-11-01T01:01:53.618Z,63.80
2018-11-01T01:02:53.639Z,63.60
2018-11-01T01:03:53.677Z,63.89
2018-11-01T01:04:53.630Z,64.56
2018-11-01T01:05:53.643Z,64.75
2018-11-01T01:06:53.653Z,63.99
2018-11-01T01:07:53.649Z,63.80
2018-11-01T01:08:53.665Z,64.75
2018-11-01T01:09:53.678Z,64.47
2018-11-01T01:10:53.665Z,64.47
2018-11-01T01:11:53.669Z,65.03
2018-11-01T01:16:13.192Z,65.32
2018-11-01T01:17:13.170Z,64.65
2018-11-01T01:18:13.170Z,64.84
2018-11-01T01:19:13.171Z,64.84
2018-11-01T01:20:13.205Z,64.75
2018-11-01T01:21:13.218Z,65.51
2018-11-01T01:22:13.220Z,65.32
2018-11-01T01:23:13.192Z,65.23
2018-11-01T01:24:13.205Z,65.32
2018-11-01T01:25:13.226Z,65.51
2018-11-01T01:26:13.242Z,65.51
2018-11-01T01:27:13.229Z,65.32
2018-11-01T01:28:13.226Z,65.32
2018-11-01T01:29:13.225Z,65.80
2018-11-01T01:30:13.238Z,66.14
2018-11-01T01:31:13.257Z,65.99
2018-11-01T01:32:13.240Z,65.80
2018-11-01T01:33:13.262Z,65.89
2018-11-01T01:34:13.730Z,66.27
2018-11-01T01:35:13.252Z,65.70
2018-11-01T01:36:13.279Z,65.51
2018-11-01T01:37:13.297Z,65.42
2018-11-01T01:38:13.268Z,66.08
2018-11-01T01:39:13.269Z,65.95
2018-11-01T01:40:13.298Z,65.77
2018-11-01T01:41:13.345Z,65.86
2018-11-01T01:42:13.313Z,65.99
2018-11-01T01:43:13.293Z,65.99
2018-11-01T01:44:13.304Z,66.14
2018-11-01T01:45:13.314Z,66.24
2018-11-01T01:46:13.366Z,66.81
2018-11-01T01:47:13.732Z,67.19
2018-11-01T01:48:13.364Z,67.47
2018-11-01T01:49:13.337Z,66.62
2018-11-01T01:50:13.382Z,67.29
2018-11-01T01:51:13.339Z,67.47
2018-11-01T01:52:13.344Z,67.10
2018-11-01T01:53:13.407Z,67.57
2018-11-01T01:54:13.351Z,66.91
2018-11-01T01:55:13.400Z,67.38
2018-11-01T01:56:13.379Z,67.29
2018-11-01T01:57:13.358Z,67.00
2018-11-01T01:58:13.410Z,67.29
2018-11-01T01:59:13.381Z,67.47
2018-11-01T02:00:13.381Z,67.76
2018-11-01T02:01:13.404Z,67.38
2018-11-01T02:02:13.398Z,67.19
2018-11-01T02:03:13.433Z,67.03
2018-11-01T02:04:13.395Z,66.53
2018-11-01T02:05:13.401Z,66.37
2018-11-01T02:06:13.434Z,66.08
2018-11-01T02:07:13.414Z,66.27
2018-11-01T02:08:13.418Z,66.18
2018-11-01T02:09:13.453Z,66.27
2018-11-01T02:10:13.442Z,66.72
2018-11-01T02:11:13.463Z,66.66
2018-11-01T02:12:13.436Z,66.56
2018-11-01T02:13:13.443Z,66.62
2018-11-01T02:14:13.445Z,66.91
2018-11-01T02:15:13.458Z,67.38
2018-11-01T02:16:13.481Z,67.38
2018-11-01T02:17:13.490Z,67.57
2018-11-01T02:18:13.493Z,67.47
2018-11-01T02:19:13.507Z,67.19
2018-11-01T02:20:13.497Z,67.19
2018-11-01T02:21:13.491Z,67.29
2018-11-01T02:22:13.500Z,67.32
2018-11-01T02:23:13.512Z,67.03
2018-11-01T02:24:13.498Z,66.46
2018-11-01T02:25:13.518Z,66.85
2018-11-01T02:26:13.516Z,67.03
2018-11-01T02:27:13.522Z,66.85
2018-11-01T02:28:13.566Z,67.41
2018-11-01T02:29:13.558Z,66.75
2018-11-01T02:30:13.638Z,66.46
2018-11-01T02:31:13.530Z,66.56
2018-11-01T02:32:13.570Z,66.56
2018-11-01T02:33:13.544Z,66.37
2018-11-01T02:34:13.575Z,66.27
2018-11-01T02:35:13.575Z,66.27
2018-11-01T02:36:13.560Z,66.46
2018-11-01T02:37:13.565Z,66.56
2018-11-01T02:38:13.660Z,66.66
2018-11-01T02:39:13.596Z,66.46
2018-11-01T02:40:13.599Z,67.22
2018-11-01T02:41:13.583Z,67.03
2018-11-01T02:42:13.583Z,67.03
2018-11-01T02:43:13.597Z,67.80
2018-11-01T02:44:13.615Z,67.47
2018-11-01T02:45:13.668Z,68.15
2018-11-01T02:46:13.613Z,67.76
2018-11-01T02:47:13.611Z,67.95
2018-11-01T02:48:13.635Z,68.33
2018-11-01T02:49:13.647Z,67.67
2018-11-01T02:50:13.629Z,68.05
2018-11-01T02:51:13.658Z,67.57
2018-11-01T02:52:13.647Z,67.99
2018-11-01T02:53:13.641Z,67.38
2018-11-01T02:54:13.678Z,67.47
2018-11-01T02:55:13.653Z,68.52
2018-11-01T02:56:13.678Z,68.43
2018-11-01T02:57:13.688Z,68.52
2018-11-01T02:58:13.667Z,68.52
2018-11-01T02:59:13.700Z,69.00
2018-11-01T03:00:13.761Z,68.62
2018-11-01T03:01:13.692Z,68.62
2018-11-01T03:02:13.703Z,69.10
2018-11-01T03:03:13.710Z,69.57
2018-11-01T03:04:13.726Z,69.57
2018-11-01T03:05:13.700Z,69.57
2018-11-01T03:06:13.715Z,69.44
2018-11-01T03:07:13.720Z,69.54
2018-11-01T03:08:13.746Z,69.73
2018-11-01T03:09:13.738Z,69.92
2018-11-01T03:10:13.725Z,69.85
2018-11-01T03:11:13.730Z,69.85
2018-11-01T03:12:13.742Z,69.67
2018-11-01T03:13:13.741Z,69.29
2018-11-01T03:14:13.776Z,69.10
2018-11-01T03:15:13.770Z,68.90
2018-11-01T03:16:13.766Z,68.90
2018-11-01T03:17:13.850Z,68.62
2018-11-01T03:18:13.766Z,68.43
2018-11-01T03:19:13.791Z,68.33
2018-11-01T03:20:13.789Z,68.15
2018-11-01T03:21:13.776Z,68.33
2018-11-01T03:22:13.806Z,68.43
2018-11-01T03:23:13.787Z,68.24
2018-11-01T03:24:13.830Z,68.24
2018-11-01T03:25:13.812Z,68.43
2018-11-01T03:26:13.861Z,68.24
2018-11-01T03:27:13.805Z,68.43
2018-11-01T03:28:13.811Z,67.67
2018-11-01T03:29:13.844Z,68.43
2018-11-01T03:30:13.820Z,68.05
2018-11-01T03:31:13.871Z,68.43
2018-11-01T03:32:13.836Z,68.43
2018-11-01T03:33:13.846Z,68.05
2018-11-01T03:34:13.913Z,68.33
2018-11-01T03:35:13.934Z,68.43
2018-11-01T03:36:13.876Z,68.52
2018-11-01T03:37:13.853Z,68.43
2018-11-01T03:38:14.060Z,68.43
2018-11-01T03:39:13.872Z,68.43
2018-11-01T03:40:13.872Z,68.33
2018-11-01T03:41:13.902Z,68.05
2018-11-01T03:42:13.883Z,68.33
2018-11-01T03:43:13.953Z,68.05
2018-11-01T03:44:13.890Z,69.10
2018-11-01T03:45:13.911Z,69.10
2018-11-01T03:46:13.904Z,68.52
2018-11-01T03:47:13.906Z,69.19
2018-11-01T03:48:13.910Z,68.05
2018-11-01T03:49:13.932Z,69.19
2018-11-01T03:50:13.918Z,69.19
2018-11-01T03:51:13.922Z,69.19
2018-11-01T03:52:13.946Z,68.62
2018-11-01T03:53:13.992Z,69.00
2018-11-01T03:54:13.973Z,69.76
2018-11-01T03:55:13.949Z,70.33
2018-11-01T03:56:13.948Z,70.14
2018-11-01T03:57:13.954Z,70.52
2018-11-01T03:58:13.967Z,69.92
2018-11-01T03:59:13.978Z,70.52
2018-11-01T04:00:14.027Z,69.67
2018-11-01T04:01:13.971Z,70.05
2018-11-01T04:02:13.979Z,70.33
2018-11-01T04:03:14.007Z,69.82
2018-11-01T04:04:13.998Z,69.95
2018-11-01T04:05:13.996Z,70.20
2018-11-01T04:06:14.030Z,70.68
2018-11-01T04:07:14.016Z,70.49
2018-11-01T04:08:14.022Z,70.87
2018-11-01T04:09:14.019Z,71.25
2018-11-01T04:10:14.063Z,71.44
2018-11-01T04:11:14.019Z,71.63
2018-11-01T04:12:14.023Z,71.63
2018-11-01T04:13:14.033Z,71.91
2018-11-01T04:14:14.038Z,71.82
2018-11-01T04:15:14.125Z,72.30
2018-11-01T04:16:14.068Z,71.82
2018-11-01T04:17:14.077Z,71.82
2018-11-01T04:18:14.101Z,71.91
2018-11-01T04:19:14.061Z,71.63
2018-11-01T04:20:14.064Z,71.53
2018-11-01T04:21:14.076Z,71.15
2018-11-01T04:22:14.097Z,70.97
2018-11-01T04:23:14.103Z,70.97
2018-11-01T04:24:14.148Z,72.01
2018-11-01T04:25:14.095Z,71.53
2018-11-01T04:26:14.091Z,71.15
2018-11-01T04:27:14.094Z,71.25
2018-11-01T04:28:14.100Z,71.63
2018-11-01T04:29:14.111Z,71.15
2018-11-01T04:30:14.134Z,70.97
2018-11-01T04:31:14.136Z,71.19
2018-11-01T04:32:14.125Z,70.58
2018-11-01T04:33:14.169Z,71.19
2018-11-01T04:34:14.136Z,70.49
2018-11-01T04:35:14.179Z,71.09
2018-11-01T04:36:14.160Z,70.49
2018-11-01T04:37:14.146Z,71.47
2018-11-01T04:38:14.169Z,71.34
2018-11-01T04:39:14.155Z,71.06
2018-11-01T04:40:14.185Z,70.97
2018-11-01T04:41:14.167Z,71.15
2018-11-01T04:42:14.212Z,70.87
2018-11-01T04:43:14.234Z,71.00
2018-11-01T04:44:14.191Z,71.38
2018-11-01T04:45:14.214Z,70.87
2018-11-01T04:46:14.209Z,71.63
2018-11-01T04:47:14.237Z,72.20
2018-11-01T04:48:14.217Z,71.53
2018-11-01T04:49:14.224Z,71.44
2018-11-01T04:50:14.205Z,71.34
2018-11-01T04:51:14.212Z,71.06
2018-11-01T04:52:14.220Z,71.25
2018-11-01T04:53:14.243Z,70.97
2018-11-01T04:54:14.229Z,71.34
2018-11-01T04:55:14.243Z,71.25
2018-11-01T04:56:14.245Z,71.25
2018-11-01T04:57:14.237Z,71.25
2018-11-01T04:58:14.274Z,71.82
2018-11-01T04:59:14.255Z,71.91
2018-11-01T05:00:14.282Z,71.72
2018-11-01T05:01:14.258Z,72.30
2018-11-01T05:02:14.273Z,71.72
2018-11-01T05:03:14.317Z,71.44
2018-11-01T05:04:14.332Z,71.82
2018-11-01T05:05:14.417Z,71.82
2018-11-01T05:06:14.284Z,71.44
2018-11-01T05:07:14.293Z,71.72
2018-11-01T05:08:14.295Z,71.25
2018-11-01T05:09:14.300Z,71.44
2018-11-01T05:10:14.373Z,71.53
2018-11-01T05:11:14.312Z,71.06
2018-11-01T05:12:14.311Z,71.34
2018-11-01T05:13:14.329Z,71.63
2018-11-01T05:14:14.320Z,71.25
2018-11-01T05:15:14.418Z,71.72
2018-11-01T05:16:14.333Z,71.25
2018-11-01T05:17:14.339Z,71.06
2018-11-01T05:18:14.342Z,71.06
2018-11-01T05:19:14.342Z,71.63
2018-11-01T05:20:14.406Z,71.44
2018-11-01T05:21:14.392Z,71.15
2018-11-01T05:22:14.362Z,71.15
2018-11-01T05:23:14.367Z,71.19
2018-11-01T05:24:14.408Z,71.06
2018-11-01T05:25:14.374Z,72.11
2018-11-01T05:26:14.383Z,71.67
2018-11-01T05:27:14.401Z,71.28
2018-11-01T05:28:14.414Z,71.06
2018-11-01T05:29:14.446Z,70.97
2018-11-01T05:30:14.412Z,72.01
2018-11-01T05:31:14.407Z,71.72
2018-11-01T05:32:14.420Z,71.25
2018-11-01T05:33:14.511Z,71.86
2018-11-01T05:34:14.430Z,71.09
2018-11-01T05:35:14.441Z,71.28
2018-11-01T05:36:14.444Z,71.67
2018-11-01T05:37:14.434Z,71.38
2018-11-01T05:38:14.455Z,71.76
2018-11-01T05:39:14.459Z,71.95
2018-11-01T05:40:14.440Z,71.63
2018-11-01T05:41:14.453Z,71.82
2018-11-01T05:42:14.489Z,71.09
2018-11-01T05:43:14.464Z,71.76
2018-11-01T05:44:14.486Z,71.28
2018-11-01T05:45:14.509Z,71.76
2018-11-01T05:46:14.483Z,72.11
2018-11-01T05:47:14.476Z,72.58
2018-11-01T05:48:14.486Z,72.39
2018-11-01T05:49:14.507Z,72.67
2018-11-01T05:50:14.517Z,72.67
2018-11-01T05:51:14.503Z,72.67
2018-11-01T05:52:14.501Z,72.01
2018-11-01T05:53:14.511Z,72.20
2018-11-01T05:54:14.517Z,72.11
2018-11-01T05:55:14.562Z,72.01
2018-11-01T05:56:14.563Z,71.95
2018-11-01T05:57:14.529Z,71.86
2018-11-01T05:58:14.536Z,71.76
2018-11-01T05:59:14.538Z,71.86
2018-11-01T06:00:14.594Z,71.76
2018-11-01T06:01:14.558Z,71.91
2018-11-01T06:02:14.547Z,72.52
2018-11-01T06:03:14.662Z,72.24
2018-11-01T06:04:14.557Z,71.76
2018-11-01T06:05:14.607Z,72.33
2018-11-01T06:06:14.590Z,72.11
2018-11-01T06:07:14.569Z,72.58
2018-11-01T06:08:14.582Z,71.95
2018-11-01T06:09:14.595Z,72.52
2018-11-01T06:10:14.594Z,72.24
2018-11-01T06:11:14.626Z,72.20
2018-11-01T06:12:14.609Z,72.77
2018-11-01T06:13:14.600Z,72.39
2018-11-01T06:14:14.602Z,72.52
2018-11-01T06:15:14.665Z,72.30
2018-11-01T06:16:14.639Z,72.58
2018-11-01T06:17:14.679Z,73.25
2018-11-01T06:18:14.623Z,73.44
2018-11-01T06:19:14.635Z,73.53
2018-11-01T06:20:14.648Z,72.77
2018-11-01T06:21:14.661Z,73.15
2018-11-01T06:22:14.672Z,72.86
2018-11-01T06:23:14.648Z,73.34
2018-11-01T06:24:14.673Z,73.53
2018-11-01T06:25:14.684Z,73.15
2018-11-01T06:26:14.753Z,72.86
2018-11-01T06:27:14.686Z,72.86
2018-11-01T06:28:14.721Z,72.86
2018-11-01T06:29:14.680Z,73.19
2018-11-01T06:30:14.693Z,73.34
2018-11-01T06:31:14.693Z,72.96
2018-11-01T06:32:14.702Z,72.86
2018-11-01T06:33:14.728Z,73.25
2018-11-01T06:34:14.734Z,73.15
2018-11-01T06:35:14.728Z,72.86
2018-11-01T06:36:14.709Z,72.77
2018-11-01T06:37:14.721Z,72.86
2018-11-01T06:38:14.728Z,73.34
2018-11-01T06:39:14.798Z,74.29
2018-11-01T06:40:14.731Z,73.72
2018-11-01T06:41:14.734Z,73.82
2018-11-01T06:42:14.761Z,74.87
2018-11-01T06:43:14.742Z,75.15
2018-11-01T06:44:14.768Z,75.05
2018-11-01T06:45:14.791Z,74.29
2018-11-01T06:46:14.869Z,74.87
2018-11-01T06:47:14.771Z,74.67
2018-11-01T06:48:14.805Z,74.87
2018-11-01T06:49:14.772Z,74.58
2018-11-01T06:50:14.797Z,74.58
2018-11-01T06:51:14.801Z,75.15
2018-11-01T06:52:14.800Z,75.34
2018-11-01T06:53:14.821Z,75.91
2018-11-01T06:54:14.796Z,76.39
2018-11-01T06:55:14.799Z,76.29
2018-11-01T06:56:14.854Z,76.67
2018-11-01T06:57:14.824Z,76.67
2018-11-01T06:58:14.865Z,76.86
2018-11-01T06:59:14.990Z,76.76
2018-11-01T07:00:14.845Z,76.76
2018-11-01T07:01:14.867Z,76.76
2018-11-01T07:02:14.862Z,76.29
2018-11-01T07:03:14.838Z,76.10
2018-11-01T07:04:14.851Z,76.86
2018-11-01T07:05:14.861Z,76.86
2018-11-01T07:06:14.894Z,77.05
2018-11-01T07:07:14.877Z,77.15
2018-11-01T07:08:14.923Z,76.86
2018-11-01T07:09:15.070Z,76.96
2018-11-01T07:10:14.879Z,77.34
2018-11-01T07:11:14.994Z,77.39
2018-11-01T07:12:15.282Z,77.05
2018-11-01T07:13:14.935Z,77.34
2018-11-01T07:14:14.916Z,77.34
2018-11-01T07:15:14.906Z,77.24
2018-11-01T07:16:14.929Z,77.15
2018-11-01T07:17:15.304Z,76.86
2018-11-01T07:18:14.965Z,76.57
2018-11-01T07:19:14.913Z,76.39
2018-11-01T07:20:14.936Z,76.57
2018-11-01T07:21:15.237Z,76.67
2018-11-01T07:22:14.944Z,76.01
2018-11-01T07:23:14.953Z,76.14
2018-11-01T07:24:14.993Z,75.47
2018-11-01T07:25:14.954Z,75.38
2018-11-01T07:26:15.119Z,75.34
2018-11-01T07:27:14.975Z,75.28
2018-11-01T07:28:14.971Z,75.67
2018-11-01T07:29:15.055Z,75.57
2018-11-01T07:30:14.969Z,75.47
2018-11-01T07:31:15.015Z,75.67
2018-11-01T07:32:14.971Z,75.28
2018-11-01T07:33:15.057Z,75.28
2018-11-01T07:34:15.029Z,75.28
2018-11-01T07:35:14.999Z,75.19
2018-11-01T07:36:15.100Z,74.99
2018-11-01T07:37:15.009Z,75.09
2018-11-01T07:38:15.029Z,74.62
2018-11-01T07:39:15.009Z,74.43
2018-11-01T07:40:15.045Z,74.52
2018-11-01T07:41:15.024Z,74.84
2018-11-01T07:42:15.054Z,73.89
2018-11-01T07:43:15.029Z,73.99
2018-11-01T07:44:15.040Z,73.99
2018-11-01T07:45:15.090Z,74.18
2018-11-01T07:46:15.067Z,74.27
2018-11-01T07:47:15.056Z,74.37
2018-11-01T07:48:15.141Z,73.89
2018-11-01T07:49:15.068Z,73.99
2018-11-01T07:50:15.096Z,73.80
2018-11-01T07:51:15.106Z,74.08
2018-11-01T07:52:15.099Z,73.51
2018-11-01T07:53:15.084Z,73.13
2018-11-01T07:54:15.108Z,72.94
2018-11-01T07:55:15.187Z,72.94
2018-11-01T07:56:15.141Z,73.51
2018-11-01T07:57:15.205Z,73.03
2018-11-01T07:58:15.128Z,72.85
2018-11-01T07:59:15.121Z,72.75
2018-11-01T08:00:15.134Z,72.94
2018-11-01T08:01:15.190Z,72.75
2018-11-01T08:02:15.138Z,72.94
2018-11-01T08:03:15.173Z,73.03
2018-11-01T08:04:15.229Z,73.03
2018-11-01T08:05:15.146Z,72.75
2018-11-01T08:06:15.182Z,73.22
2018-11-01T08:07:15.176Z,73.13
2018-11-01T08:08:15.198Z,73.22
2018-11-01T08:09:15.215Z,73.22
2018-11-01T08:10:15.189Z,72.85
2018-11-01T08:11:15.193Z,72.85
2018-11-01T08:12:15.268Z,73.61
2018-11-01T08:13:15.217Z,73.13
2018-11-01T08:14:15.192Z,73.22
2018-11-01T08:15:15.199Z,73.45
2018-11-01T08:16:15.201Z,72.97
2018-11-01T08:17:15.264Z,72.97
2018-11-01T08:18:15.260Z,72.78
2018-11-01T08:19:15.247Z,72.78
2018-11-01T08:20:15.501Z,72.41
2018-11-01T08:21:15.448Z,72.69
2018-11-01T08:22:15.396Z,72.41
2018-11-01T08:23:15.317Z,72.60
2018-11-01T08:24:15.283Z,72.16
2018-11-01T08:25:15.266Z,72.16
2018-11-01T08:26:15.306Z,71.93
2018-11-01T08:27:15.388Z,71.64
2018-11-01T08:28:15.272Z,71.93
2018-11-01T08:29:15.311Z,71.83
2018-11-01T08:30:15.627Z,71.93
2018-11-01T08:31:15.441Z,71.73
2018-11-01T08:32:15.307Z,71.11
2018-11-01T08:33:15.300Z,71.26
2018-11-01T08:34:15.307Z,71.30
2018-11-01T08:35:15.600Z,71.30
2018-11-01T08:36:15.333Z,71.30
2018-11-01T08:37:15.450Z,71.58
2018-11-01T08:38:15.367Z,71.39
2018-11-01T08:39:15.355Z,71.58
2018-11-01T08:40:15.409Z,71.11
2018-11-01T08:41:15.385Z,71.30
2018-11-01T08:42:15.360Z,71.48
2018-11-01T08:43:15.556Z,70.92
2018-11-01T08:44:15.381Z,71.58
2018-11-01T08:45:15.694Z,71.11
2018-11-01T08:46:15.388Z,71.01
2018-11-01T08:47:15.373Z,70.82
2018-11-01T08:48:15.716Z,70.82
2018-11-01T08:49:15.731Z,71.30
2018-11-01T08:50:15.543Z,71.11
2018-11-01T08:51:15.441Z,70.82
2018-11-01T08:52:15.408Z,71.20
2018-11-01T08:53:15.466Z,70.44
2018-11-01T08:54:15.417Z,70.63
2018-11-01T08:55:15.490Z,70.38
2018-11-01T08:56:15.432Z,70.38
2018-11-01T08:57:15.433Z,70.47
2018-11-01T08:58:15.442Z,70.47
2018-11-01T08:59:15.477Z,70.38
2018-11-01T09:00:15.459Z,70.09
2018-11-01T09:01:15.471Z,69.81
2018-11-01T09:02:15.458Z,70.19
2018-11-01T09:03:15.473Z,69.90
2018-11-01T09:04:15.663Z,69.33
2018-11-01T09:05:15.509Z,69.33
2018-11-01T09:06:15.519Z,69.90
2018-11-01T09:07:15.520Z,69.43
2018-11-01T09:08:15.512Z,69.52
2018-11-01T09:09:15.542Z,69.52
2018-11-01T09:10:15.523Z,69.81
2018-11-01T09:11:15.517Z,70.28
2018-11-01T09:12:15.528Z,70.09
2018-11-01T09:13:15.733Z,69.23
2018-11-01T09:14:15.610Z,69.33
2018-11-01T09:15:15.723Z,69.52
2018-11-01T09:16:15.637Z,69.65
2018-11-01T09:17:15.553Z,69.65
2018-11-01T09:18:15.562Z,69.08
2018-11-01T09:19:15.638Z,69.46
2018-11-01T09:20:15.626Z,69.37
2018-11-01T09:21:15.577Z,69.17
2018-11-01T09:22:15.595Z,68.98
2018-11-01T09:23:15.623Z,68.88
2018-11-01T09:24:15.608Z,68.41
2018-11-01T09:25:15.705Z,68.51
2018-11-01T09:26:15.622Z,68.41
2018-11-01T09:27:15.669Z,68.22
2018-11-01T09:28:15.622Z,68.41
2018-11-01T09:29:15.662Z,68.60
2018-11-01T09:30:15.722Z,68.03
2018-11-01T09:31:15.644Z,68.41
2018-11-01T09:32:15.692Z,68.60
2018-11-01T09:33:15.668Z,68.12
2018-11-01T09:34:15.662Z,68.51
2018-11-01T09:35:15.670Z,69.08
2018-11-01T09:36:15.724Z,69.08
2018-11-01T09:37:15.681Z,69.74
2018-11-01T09:38:15.694Z,68.79
2018-11-01T09:39:15.716Z,69.37
2018-11-01T09:40:15.729Z,70.03
2018-11-01T09:41:15.710Z,69.84
2018-11-01T09:42:15.716Z,69.56
2018-11-01T09:43:15.723Z,69.08
2018-11-01T09:44:15.727Z,69.02
2018-11-01T09:45:15.774Z,69.11
2018-11-01T09:46:15.826Z,68.73
2018-11-01T09:47:16.160Z,68.26
2018-11-01T09:48:15.780Z,68.44
2018-11-01T09:49:15.770Z,68.63
2018-11-01T09:50:15.770Z,68.63
2018-11-01T09:51:15.783Z,68.26
2018-11-01T09:52:15.792Z,68.26
2018-11-01T09:53:15.807Z,67.77
2018-11-01T09:54:15.799Z,67.97
2018-11-01T09:55:15.802Z,68.16
2018-11-01T09:56:15.885Z,67.68
2018-11-01T09:57:15.959Z,67.68
2018-11-01T09:58:15.860Z,67.77
2018-11-01T09:59:15.843Z,67.97
2018-11-01T10:00:15.854Z,67.49
2018-11-01T10:01:16.113Z,67.24
2018-11-01T10:02:15.875Z,67.33
2018-11-01T10:03:15.996Z,67.49
2018-11-01T10:04:16.026Z,67.52
2018-11-01T10:05:15.870Z,67.52
2018-11-01T10:06:15.880Z,67.40
2018-11-01T10:07:15.883Z,67.52
2018-11-01T10:08:15.923Z,67.49
2018-11-01T10:09:15.964Z,67.24
2018-11-01T10:10:15.916Z,67.33
2018-11-01T10:11:15.918Z,67.24
2018-11-01T10:12:15.927Z,67.24
2018-11-01T10:13:15.936Z,67.62
2018-11-01T10:14:15.984Z,67.33
2018-11-01T10:15:16.142Z,67.33
2018-11-01T10:16:16.177Z,67.62
2018-11-01T10:17:16.460Z,67.43
2018-11-01T10:18:16.386Z,67.52
2018-11-01T10:19:16.018Z,67.33
2018-11-01T10:20:16.005Z,67.14
2018-11-01T10:21:16.048Z,67.24
2018-11-01T10:22:16.053Z,67.24
2018-11-01T10:23:16.012Z,67.43
2018-11-01T10:24:16.022Z,67.33
2018-11-01T10:25:16.099Z,67.33
2018-11-01T10:26:16.045Z,67.62
2018-11-01T10:27:19.509Z,67.05
2018-11-01T10:28:16.039Z,67.43
2018-11-01T10:29:16.056Z,67.65
2018-11-01T10:30:16.048Z,66.76
2018-11-01T10:31:16.094Z,66.47
2018-11-01T10:32:16.075Z,66.66
2018-11-01T10:33:16.097Z,67.05
2018-11-01T10:34:16.091Z,66.56
2018-11-01T10:35:16.125Z,66.66
2018-11-01T10:36:16.111Z,67.24
2018-11-01T10:37:16.094Z,67.43
2018-11-01T10:38:16.161Z,66.66
2018-11-01T10:39:16.109Z,66.76
2018-11-01T10:40:16.109Z,67.05
2018-11-01T10:41:16.169Z,67.05
2018-11-01T10:42:16.139Z,66.56
2018-11-01T10:43:16.137Z,66.85
2018-11-01T10:44:16.185Z,66.31
2018-11-01T10:45:16.280Z,67.24
2018-11-01T10:46:16.176Z,66.89
2018-11-01T10:47:16.161Z,66.22
2018-11-01T10:48:16.173Z,66.99
2018-11-01T10:49:16.244Z,66.50
2018-11-01T10:50:16.195Z,66.00
2018-11-01T10:51:16.217Z,66.41
2018-11-01T10:52:16.213Z,66.79
2018-11-01T10:53:16.216Z,66.60
2018-11-01T10:54:16.289Z,66.70
2018-11-01T10:55:16.261Z,66.60
2018-11-01T10:56:16.223Z,66.89
2018-11-01T10:57:16.240Z,65.84
2018-11-01T10:58:16.243Z,66.25
2018-11-01T10:59:16.241Z,66.06
2018-11-01T11:00:16.414Z,65.97
2018-11-01T11:01:16.457Z,66.35
2018-11-01T11:02:16.289Z,66.25
2018-11-01T11:03:16.314Z,66.25
2018-11-01T11:04:16.279Z,65.87
2018-11-01T11:05:16.310Z,66.06
2018-11-01T11:06:16.320Z,66.16
2018-11-01T11:07:16.348Z,66.16
2018-11-01T11:08:16.314Z,65.58
2018-11-01T11:09:16.324Z,65.68
2018-11-01T11:10:16.643Z,65.48
2018-11-01T11:11:16.369Z,65.11
2018-11-01T11:12:16.377Z,65.39
2018-11-01T11:13:16.340Z,65.87
2018-11-01T11:14:16.400Z,65.20
2018-11-01T11:15:16.412Z,64.53
2018-11-01T11:16:16.365Z,64.82
2018-11-01T11:17:16.430Z,64.91
2018-11-01T11:18:16.420Z,64.62
2018-11-01T11:19:16.395Z,64.82
2018-11-01T11:20:16.480Z,64.25
2018-11-01T11:21:16.706Z,64.72
2018-11-01T11:22:16.409Z,64.25
2018-11-01T11:23:16.456Z,63.86
2018-11-01T11:24:16.502Z,64.47
2018-11-01T11:25:16.555Z,64.28
2018-11-01T11:26:16.440Z,64.09
2018-11-01T11:27:16.516Z,63.99
2018-11-01T11:28:16.473Z,63.89
2018-11-01T11:29:16.476Z,64.47
2018-11-01T11:30:16.649Z,63.99
2018-11-01T11:31:16.488Z,63.70
2018-11-01T11:32:16.492Z,64.09
2018-11-01T11:33:16.512Z,64.09
2018-11-01T11:34:16.509Z,64.09
2018-11-01T11:35:16.557Z,63.99
2018-11-01T11:36:16.536Z,63.60
2018-11-01T11:37:16.584Z,64.18
2018-11-01T11:38:16.542Z,64.18
2018-11-01T11:39:16.631Z,64.09
2018-11-01T11:40:16.625Z,63.73
2018-11-01T11:41:16.556Z,63.54
2018-11-01T11:42:16.557Z,63.54
2018-11-01T11:43:16.576Z,62.97
2018-11-01T11:44:16.631Z,62.87
2018-11-01T11:45:16.583Z,63.26
2018-11-01T11:46:16.631Z,63.06
2018-11-01T11:47:16.617Z,62.59
2018-11-01T11:48:16.616Z,62.87
2018-11-01T11:49:16.623Z,62.77
2018-11-01T11:50:16.678Z,63.06
2018-11-01T11:51:16.680Z,62.87
2018-11-01T11:52:16.659Z,62.77
2018-11-01T11:53:16.683Z,63.35
2018-11-01T11:54:16.673Z,63.35
2018-11-01T11:55:16.666Z,62.49
2018-11-01T11:56:16.670Z,62.97
2018-11-01T11:57:16.753Z,62.49
2018-11-01T11:58:16.784Z,63.06
2018-11-01T11:59:16.689Z,63.06
2018-11-01T12:00:16.704Z,62.49
2018-11-01T12:01:16.750Z,62.49
2018-11-01T12:02:16.824Z,63.16
2018-11-01T12:03:16.736Z,63.06
2018-11-01T12:04:16.736Z,63.26
2018-11-01T12:05:16.782Z,62.49
2018-11-01T12:06:16.975Z,63.16
2018-11-01T12:07:16.755Z,62.87
2018-11-01T12:08:16.783Z,62.49
2018-11-01T12:09:16.845Z,63.10
2018-11-01T12:10:16.797Z,62.81
2018-11-01T12:11:16.834Z,62.97
2018-11-01T12:12:16.808Z,62.43
2018-11-01T12:13:16.809Z,63.19
2018-11-01T12:14:16.893Z,62.52
2018-11-01T12:15:16.921Z,63.19
2018-11-01T12:16:16.829Z,62.62
2018-11-01T12:17:16.836Z,62.14
2018-11-01T12:18:16.853Z,63.19
2018-11-01T12:19:16.862Z,62.81
2018-11-01T12:20:16.905Z,63.10
2018-11-01T12:21:16.967Z,63.19
2018-11-01T12:22:17.018Z,63.19
2018-11-01T12:23:16.885Z,62.81
2018-11-01T12:24:16.993Z,63.00
2018-11-01T12:25:16.945Z,63.19
2018-11-01T12:26:16.913Z,63.10
2018-11-01T12:27:16.921Z,62.90
2018-11-01T12:28:17.011Z,62.14
2018-11-01T12:29:16.938Z,63.48
2018-11-01T12:30:16.987Z,63.10
2018-11-01T12:31:16.950Z,63.10
2018-11-01T12:32:16.981Z,63.00
2018-11-01T12:33:16.963Z,63.19
2018-11-01T12:34:17.008Z,62.62
2018-11-01T12:35:17.013Z,62.81
2018-11-01T12:36:17.000Z,62.62
2018-11-01T12:37:17.044Z,62.52
2018-11-01T12:38:17.037Z,62.81
2018-11-01T12:39:17.011Z,62.81
2018-11-01T12:40:17.028Z,63.00
2018-11-01T12:41:17.033Z,62.81
2018-11-01T12:42:17.042Z,63.19
2018-11-01T12:43:17.065Z,63.29
2018-11-01T12:44:17.056Z,63.39
2018-11-01T12:45:17.168Z,62.62
2018-11-01T12:46:17.068Z,63.00
2018-11-01T12:47:17.085Z,63.00
2018-11-01T12:48:17.120Z,62.81
2018-11-01T12:49:17.115Z,62.33
2018-11-01T12:50:17.241Z,62.33
2018-11-01T12:51:17.108Z,62.90
2018-11-01T12:52:17.271Z,62.81
2018-11-01T12:53:17.138Z,63.19
2018-11-01T12:54:17.138Z,62.33
2018-11-01T12:55:17.143Z,63.00
2018-11-01T12:56:17.217Z,62.90